WDBP weather

Wanda Beach Helipad
Cronulla, New South Wales, Australia

Public forecast

Using degrees Celsius for public forecast. Weather courtesy of forecast.io.

Closest aviation weather report (METAR) to Wanda Beach Helipad

Closest report is Sydney Kingsford Smith International Airport, 5.7 nm (10.6 km) N. Retrieved 2019/10/20 16:30 UTC (0 seconds ago):

YSSY 201630Z 25005KT 9999 FEW040 14/10 Q1025

Closest aviation forecast (TAF) to Wanda Beach Helipad

Closest forecast is Sydney Kingsford Smith International Airport, 5.7 nm (10.6 km) N. Retrieved 2019/10/20 12:00 UTC (4 hours ago):

TAF YSSY 201109Z 2012/2118 08008KT CAVOK FM201400 29008KT CAVOK FM210000 09012KT CAVOK FM211000 29005KT 9999 FEW030